.
WxDataArchive / Data Records for 2013-11-18
2013-11-17 November 2013 2013-11-19

Data Records for Monday, 18 November 2013

Time	Temp	Chill	HIndex	Humid	Dewpt	 Wind 	HiWind	WindDir	Rain 	Barom 
-----	----	-----	------	-----	-----	------	------	-------	-----	----- 
00:00	47.4	45.9	47.4	68	37.4	4	10	270	0.00	29.652 
00:05	47.3	45.0	47.3	68	37.3	5	8	270	0.00	29.652 
00:10	47.1	47.1	47.1	69	37.5	3	7	270	0.00	29.652 
00:15	46.8	46.8	46.8	69	37.2	3	9	248	0.00	29.656 
00:20	46.7	45.1	46.7	69	37.1	4	10	270	0.00	29.656 
00:25	46.5	46.5	46.5	69	36.9	3	7	248	0.00	29.656 
00:30	46.5	46.5	46.5	70	37.3	3	7	270	0.00	29.666 
00:35	46.4	46.4	46.4	70	37.2	3	9	270	0.00	29.666 
00:40	46.2	46.2	46.2	70	37.0	3	13	270	0.00	29.666 
00:45	46.1	44.4	46.1	70	36.9	4	13	270	0.00	29.651 
00:50	46.0	44.2	46.0	71	37.1	4	9	270	0.00	29.651 
00:55	46.0	46.0	46.0	71	37.1	3	6	270	0.00	29.651 
01:00	46.1	46.1	46.1	71	37.2	3	7	248	0.00	29.681 
01:05	46.2	46.2	46.2	71	37.3	3	6	248	0.00	29.681 
01:10	46.1	46.1	46.1	70	36.9	3	10	270	0.00	29.681 
01:15	46.1	44.4	46.1	70	36.9	4	7	248	0.00	29.695 
01:20	46.0	46.0	46.0	70	36.8	2	5	248	0.00	29.695 
01:25	45.8	45.8	45.8	71	36.9	2	4	270	0.00	29.695 
01:30	45.5	45.5	45.5	72	37.0	2	7	248	0.00	29.698 
01:35	45.4	45.4	45.4	73	37.3	2	7	248	0.00	29.698 
01:40	45.2	45.2	45.2	73	37.1	2	6	248	0.00	29.698 
01:45	44.9	43.0	44.9	73	36.8	4	9	248	0.00	29.704 
01:50	44.6	44.6	44.6	73	36.5	3	7	248	0.00	29.704 
01:55	44.5	44.5	44.5	74	36.7	2	6	248	0.00	29.704 
02:00	44.3	44.3	44.3	75	36.9	2	5	248	0.00	29.717 
02:05	44.1	44.1	44.1	75	36.7	1	4	248	0.00	29.717 
02:10	43.9	43.9	43.9	76	36.8	2	6	248	0.00	29.717 
02:15	43.8	43.8	43.8	76	36.7	3	7	248	0.00	29.717 
02:20	43.6	43.6	43.6	75	36.2	3	7	270	0.00	29.717 
02:25	43.5	43.5	43.5	75	36.1	3	5	248	0.00	29.717 
02:30	43.3	43.3	43.3	76	36.3	2	5	248	0.00	29.722 
02:35	43.2	43.2	43.2	77	36.5	2	5	248	0.00	29.722 
02:40	42.9	42.9	42.9	77	36.2	2	6	270	0.00	29.722 
02:45	42.8	42.8	42.8	77	36.1	3	11	270	0.00	29.722 
02:50	42.6	42.6	42.6	77	35.9	3	7	248	0.00	29.722 
02:55	42.5	42.5	42.5	77	35.8	1	4	248	0.00	29.722 
03:00	42.3	42.3	42.3	78	35.9	2	6	248	0.00	29.732 
03:05	42.2	42.2	42.2	78	35.8	3	6	248	0.00	29.732 
03:10	42.2	42.2	42.2	78	35.8	2	7	270	0.00	29.732 
03:15	42.1	42.1	42.1	78	35.7	3	7	248	0.00	29.738 
03:20	41.9	41.9	41.9	78	35.5	2	10	248	0.00	29.738 
03:25	41.9	41.9	41.9	78	35.5	3	10	248	0.00	29.738 
03:30	41.9	41.9	41.9	78	35.5	3	10	248	0.00	29.749 
03:35	41.9	41.9	41.9	78	35.5	3	10	248	0.00	29.749 
03:40	41.9	41.9	41.9	78	35.5	3	12	248	0.00	29.749 
03:45	41.8	41.8	41.8	78	35.5	3	5	248	0.00	29.751 
03:50	41.6	41.6	41.6	78	35.3	3	6	248	0.00	29.751 
03:55	41.6	41.6	41.6	78	35.3	2	6	248	0.00	29.751 
04:00	41.5	41.5	41.5	78	35.2	3	6	248	0.00	29.756 
04:05	41.5	41.5	41.5	78	35.2	3	10	248	0.00	29.756 
04:10	41.5	41.5	41.5	78	35.2	2	6	248	0.00	29.756 
04:15	41.5	41.5	41.5	78	35.2	2	4	248	0.00	29.756 
04:20	41.3	41.3	41.3	78	35.0	2	7	248	0.00	29.756 
04:25	41.2	41.2	41.2	78	34.9	3	6	248	0.00	29.756 
04:30	41.2	41.2	41.2	78	34.9	2	6	270	0.00	29.759 
04:35	41.2	41.2	41.2	78	34.9	2	6	248	0.00	29.759 
04:40	41.2	41.2	41.2	78	34.9	2	6	248	0.00	29.759 
04:45	41.1	41.1	41.1	78	34.8	1	5	248	0.00	29.763 
04:50	40.9	40.9	40.9	79	34.9	1	5	248	0.00	29.763 
04:55	40.9	40.9	40.9	79	34.9	2	6	248	0.00	29.763 
05:00	40.8	40.8	40.8	79	34.8	2	5	248	0.00	29.770 
05:05	40.8	40.8	40.8	80	35.1	2	5	248	0.00	29.770 
05:10	40.8	40.8	40.8	80	35.1	2	5	248	0.00	29.770 
05:15	40.6	40.6	40.6	80	34.9	2	5	248	0.00	29.770 
05:20	40.6	40.6	40.6	80	34.9	2	5	248	0.00	29.770 
05:25	40.6	40.6	40.6	80	34.9	3	9	248	0.00	29.770 
05:30	40.6	40.6	40.6	80	34.9	3	6	248	0.00	29.774 
05:35	40.6	40.6	40.6	81	35.2	3	7	248	0.00	29.774 
05:40	40.6	40.6	40.6	81	35.2	2	7	248	0.00	29.774 
05:45	40.6	40.6	40.6	81	35.2	3	9	248	0.00	29.777 
05:50	40.6	40.6	40.6	81	35.2	3	11	248	0.00	29.777 
05:55	40.6	40.6	40.6	81	35.2	3	11	248	0.00	29.777 
06:00	40.6	40.6	40.6	81	35.2	3	6	248	0.00	29.773 
06:05	40.5	40.5	40.5	81	35.1	3	6	248	0.00	29.773 
06:10	40.5	40.5	40.5	81	35.1	3	7	248	0.00	29.773 
06:15	40.5	40.5	40.5	81	35.1	3	6	248	0.00	29.777 
06:20	40.5	40.5	40.5	81	35.1	2	5	248	0.00	29.777 
06:25	40.5	40.5	40.5	81	35.1	1	5	248	0.00	29.777 
06:30	40.3	40.3	40.3	82	35.2	2	6	248	0.00	29.778 
06:35	40.5	40.5	40.5	82	35.4	3	8	248	0.00	29.778 
06:40	40.5	40.5	40.5	83	35.8	2	6	248	0.00	29.778 
06:45	40.5	40.5	40.5	83	35.8	3	7	248	0.00	29.786 
06:50	40.5	40.5	40.5	83	35.8	2	5	270	0.00	29.786 
06:55	40.5	37.9	40.5	83	35.8	4	7	270	0.00	29.786 
07:00	40.6	40.6	40.6	83	35.8	3	6	270	0.00	29.789 
07:05	40.5	40.5	40.5	83	35.8	3	6	248	0.00	29.789 
07:10	40.6	40.6	40.6	83	35.8	3	11	248	0.00	29.789 
07:15	40.6	40.6	40.6	86	36.7	3	6	248	0.00	29.793 
07:20	40.5	40.5	40.5	82	35.4	3	6	248	0.00	29.793 
07:25	40.5	40.5	40.5	82	35.4	3	7	248	0.00	29.793 
07:30	40.3	40.3	40.3	82	35.2	3	6	248	0.00	29.795 
07:35	40.2	40.2	40.2	82	35.2	2	7	248	0.00	29.795 
07:40	40.1	40.1	40.1	82	35.1	2	4	270	0.00	29.795 
07:45	39.9	39.9	39.9	82	34.9	3	7	248	0.00	29.801 
07:50	39.9	39.9	39.9	82	34.9	2	5	248	0.00	29.801 
07:55	39.8	39.8	39.8	82	34.8	2	4	248	0.00	29.801 
08:00	39.8	39.8	39.8	82	34.8	2	5	248	0.00	29.810 
08:05	39.8	39.8	39.8	82	34.8	2	4	248	0.00	29.810 
08:10	39.8	39.8	39.8	82	34.8	2	6	248	0.00	29.810 
08:15	39.8	39.8	39.8	81	34.5	2	5	248	0.00	29.823 
08:20	39.9	39.9	39.9	81	34.6	2	6	248	0.00	29.823 
08:25	39.9	39.9	39.9	81	34.6	2	4	248	0.00	29.823 
08:30	39.9	39.9	39.9	81	34.6	2	5	248	0.00	29.827 
08:35	40.1	40.1	40.1	80	34.4	3	6	270	0.00	29.827 
08:40	40.1	40.1	40.1	80	34.4	2	5	248	0.00	29.827 
08:45	40.2	40.2	40.2	79	34.2	3	6	270	0.00	29.838 
08:50	40.2	40.2	40.2	79	34.2	2	6	270	0.00	29.838 
08:55	40.3	40.3	40.3	78	34.0	2	5	270	0.00	29.838 
09:00	40.3	40.3	40.3	77	33.7	3	7	270	0.00	29.843 
09:05	40.5	37.9	40.5	76	33.5	4	7	270	0.00	29.843 
09:10	40.5	37.9	40.5	75	33.2	4	7	270	0.00	29.843 
09:15	40.6	40.6	40.6	75	33.3	3	6	270	0.00	29.846 
09:20	40.8	40.8	40.8	74	33.2	3	5	270	0.00	29.846 
09:25	40.8	40.8	40.8	73	32.8	3	9	292	0.00	29.846 
09:30	40.8	38.2	40.8	71	32.1	4	10	270	0.00	29.856 
09:35	40.9	40.9	40.9	71	32.2	3	9	270	0.00	29.856 
09:40	40.8	37.4	40.8	69	31.4	5	8	270	0.00	29.856 
09:45	40.8	38.2	40.8	69	31.4	4	7	270	0.00	29.861 
09:50	40.9	37.5	40.9	68	31.2	5	9	270	0.00	29.861 
09:55	40.9	38.4	40.9	68	31.2	4	11	270	0.00	29.861 
10:00	40.9	40.9	40.9	69	31.5	3	7	270	0.00	29.871 
10:05	41.1	41.1	41.1	68	31.4	2	6	270	0.00	29.871 
10:10	40.9	37.5	40.9	68	31.2	5	10	270	0.00	29.871 
10:15	40.6	37.2	40.6	67	30.5	5	10	270	0.00	29.884 
10:20	40.6	37.2	40.6	68	30.9	5	10	270	0.00	29.884 
10:25	40.6	38.0	40.6	68	30.9	4	9	270	0.00	29.884 
10:30	40.8	40.8	40.8	69	31.4	3	6	270	0.00	29.892 
10:35	40.8	38.2	40.8	68	31.1	4	10	270	0.00	29.892 
10:40	40.6	37.2	40.6	67	30.5	5	12	270	0.00	29.892 
10:45	40.5	37.1	40.5	68	30.8	5	9	292	0.00	29.898 
10:50	40.5	37.9	40.5	68	30.8	4	7	270	0.00	29.898 
10:55	40.6	38.0	40.6	67	30.5	4	9	270	0.00	29.898 
11:00	40.9	38.4	40.9	67	30.8	4	11	270	0.00	29.905 
11:05	41.1	38.6	41.1	66	30.6	4	9	270	0.00	29.905 
11:10	40.9	38.4	40.9	66	30.4	4	9	270	0.00	29.905 
11:15	40.9	38.4	40.9	65	30.1	4	13	270	0.00	29.908 
11:20	40.9	38.4	40.9	66	30.4	4	9	270	0.00	29.908 
11:25	40.9	40.9	40.9	67	30.8	3	7	270	0.00	29.908 
11:30	41.1	41.1	41.1	68	31.4	3	10	292	0.00	29.908 
11:35	41.3	41.3	41.3	66	30.8	3	6	270	0.00	29.908 
11:40	41.3	38.0	41.3	65	30.4	5	12	270	0.00	29.908 
11:45	41.2	38.7	41.2	65	30.3	4	9	270	0.00	29.908 
11:50	41.2	38.7	41.2	65	30.3	4	10	270	0.00	29.908 
11:55	41.2	37.9	41.2	64	30.0	5	13	270	0.00	29.908 
12:00	41.2	38.7	41.2	64	30.0	4	9	270	0.00	29.909 
12:05	41.3	38.8	41.3	64	30.1	4	11	270	0.00	29.909 
12:10	41.3	38.8	41.3	63	29.7	4	7	270	0.00	29.909 
12:15	41.5	39.1	41.5	64	30.2	4	7	270	0.00	29.918 
12:20	41.5	39.1	41.5	65	30.6	4	12	270	0.00	29.918 
12:25	41.5	41.5	41.5	64	30.2	3	10	292	0.00	29.918 
12:30	41.5	39.1	41.5	64	30.2	4	10	292	0.00	29.924 
12:35	41.6	41.6	41.6	63	30.0	3	6	270	0.00	29.924 
12:40	41.6	39.2	41.6	63	30.0	4	10	292	0.00	29.924 
12:45	41.6	41.6	41.6	63	30.0	3	7	292	0.00	29.932 
12:50	41.6	39.2	41.6	63	30.0	4	6	270	0.00	29.932 
12:55	41.8	41.8	41.8	63	30.1	3	7	270	0.00	29.932 
13:00	41.8	41.8	41.8	64	30.5	3	7	270	0.00	29.931 
13:05	41.8	39.4	41.8	63	30.1	4	6	270	0.00	29.931 
13:10	41.8	39.4	41.8	62	29.7	4	9	270	0.00	29.931 
13:15	41.8	41.8	41.8	63	30.1	3	6	270	0.00	29.932 
13:20	41.9	39.5	41.9	61	29.4	4	9	270	0.00	29.932 
13:25	41.8	38.6	41.8	61	29.4	5	9	270	0.00	29.932 
13:30	41.8	41.8	41.8	62	29.7	3	7	270	0.00	29.935 
13:35	42.1	42.1	42.1	61	29.6	3	6	292	0.00	29.935 
13:40	42.1	39.7	42.1	61	29.6	4	8	270	0.00	29.935 
13:45	42.1	42.1	42.1	61	29.6	3	7	248	0.00	29.941 
13:50	41.9	41.9	41.9	62	29.8	3	8	315	0.00	29.941 
13:55	41.9	41.9	41.9	61	29.4	3	7	315	0.00	29.941 
14:00	41.9	41.9	41.9	61	29.4	3	11	315	0.00	29.949 
14:05	42.1	42.1	42.1	62	30.0	2	5	315	0.00	29.949 
14:10	42.1	42.1	42.1	61	29.6	3	7	292	0.00	29.949 
14:15	41.8	38.6	41.8	59	28.5	5	11	315	0.00	29.960 
14:20	41.9	39.5	41.9	58	28.2	4	14	292	0.00	29.960 
14:25	42.2	42.2	42.2	58	28.5	3	6	270	0.00	29.960 
14:30	42.3	40.0	42.3	57	28.2	4	7	270	0.00	29.965 
14:35	42.3	42.3	42.3	58	28.6	3	7	270	0.00	29.965 
14:40	42.2	39.9	42.2	58	28.5	4	11	270	0.00	29.965 
14:45	41.9	39.5	41.9	58	28.2	4	9	270	0.00	29.971 
14:50	41.8	39.4	41.8	58	28.1	4	12	270	0.00	29.971 
14:55	41.6	39.2	41.6	58	27.9	4	7	292	0.00	29.971 
15:00	41.6	41.6	41.6	58	27.9	3	7	292	0.00	29.984 
15:05	41.3	38.8	41.3	58	27.7	4	10	270	0.00	29.984 
15:10	41.2	37.9	41.2	58	27.6	5	12	315	0.00	29.984 
15:15	41.2	41.2	41.2	59	28.0	3	9	270	0.00	29.995 
15:20	41.2	38.7	41.2	59	28.0	4	9	270	0.00	29.995 
15:25	41.2	38.7	41.2	59	28.0	4	9	292	0.00	29.995 
15:30	41.2	41.2	41.2	60	28.4	3	5	270	0.00	30.003 
15:35	41.1	41.1	41.1	60	28.3	2	7	338	0.00	30.003 
15:40	41.1	41.1	41.1	61	28.7	2	7	315	0.00	30.003 
15:45	41.1	41.1	41.1	61	28.7	3	8	315	0.00	30.018 
15:50	40.9	40.9	40.9	60	28.1	3	6	292	0.00	30.018 
15:55	40.9	40.9	40.9	59	27.7	3	5	315	0.00	30.018 
16:00	40.8	38.2	40.8	59	27.6	4	11	292	0.00	30.023 
16:05	40.6	40.6	40.6	59	27.4	3	7	315	0.00	30.023 
16:10	40.6	40.6	40.6	59	27.4	3	6	315	0.00	30.023 
16:15	40.5	40.5	40.5	60	27.7	2	5	292	0.00	30.034 
16:20	40.3	40.3	40.3	59	27.1	3	10	315	0.00	30.034 
16:25	40.3	40.3	40.3	60	27.5	3	7	292	0.00	30.034 
16:30	40.1	40.1	40.1	60	27.3	3	9	338	0.00	30.041 
16:35	40.1	40.1	40.1	61	27.7	3	6	315	0.00	30.041 
16:40	39.9	39.9	39.9	62	28.0	2	4	315	0.00	30.041 
16:45	39.8	39.8	39.8	62	27.9	3	10	270	0.00	30.052 
16:50	39.6	39.6	39.6	62	27.7	2	7	338	0.00	30.052 
16:55	39.5	39.5	39.5	62	27.6	2	5	270	0.00	30.052 
17:00	39.3	39.3	39.3	62	27.4	3	6	292	0.00	30.057 
17:05	39.2	39.2	39.2	62	27.3	2	4	315	0.00	30.057 
17:10	39.1	39.1	39.1	62	27.2	2	6	315	0.00	30.057 
17:15	39.1	39.1	39.1	63	27.6	1	4	270	0.00	30.060 
17:20	38.9	38.9	38.9	63	27.4	1	4	270	0.00	30.060 
17:25	38.9	38.9	38.9	64	27.8	2	5	292	0.00	30.060 
17:30	38.9	38.9	38.9	64	27.8	1	4	270	0.00	30.063 
17:35	38.9	38.9	38.9	64	27.8	1	5	315	0.00	30.063 
17:40	38.9	38.9	38.9	64	27.8	2	6	248	0.00	30.063 
17:45	38.9	38.9	38.9	65	28.2	1	6	315	0.00	30.071 
17:50	38.8	38.8	38.8	65	28.1	1	3	315	0.00	30.071 
17:55	38.8	38.8	38.8	64	27.7	2	5	315	0.00	30.071 
18:00	38.8	38.8	38.8	64	27.7	1	3	315	0.00	30.077 
18:05	38.8	38.8	38.8	64	27.7	2	5	270	0.00	30.077 
18:10	38.6	38.6	38.6	64	27.5	2	3	315	0.00	30.077 
18:15	38.6	38.6	38.6	64	27.5	3	7	292	0.00	30.080 
18:20	38.6	38.6	38.6	64	27.5	2	4	292	0.00	30.080 
18:25	38.5	38.5	38.5	64	27.4	1	5	270	0.00	30.080 
18:30	38.5	38.5	38.5	64	27.4	2	6	270	0.00	30.087 
18:35	38.5	38.5	38.5	64	27.4	2	5	270	0.00	30.087 
18:40	38.3	38.3	38.3	64	27.2	2	6	315	0.00	30.087 
18:45	38.3	38.3	38.3	63	26.8	2	5	315	0.00	30.091 
18:50	38.3	38.3	38.3	63	26.8	2	5	270	0.00	30.091 
18:55	38.0	38.0	38.0	64	26.9	1	4	270	0.00	30.091 
19:00	37.9	37.9	37.9	63	26.4	2	7	292	0.00	30.098 
19:05	37.9	37.9	37.9	64	26.8	2	6	315	0.00	30.098 
19:10	37.8	37.8	37.8	64	26.7	2	4	315	0.00	30.098 
19:15	37.8	37.8	37.8	64	26.7	2	6	315	0.00	30.105 
19:20	37.6	37.6	37.6	64	26.5	2	6	315	0.00	30.105 
19:25	37.5	37.5	37.5	64	26.4	1	4	315	0.00	30.105 
19:30	37.3	37.3	37.3	65	26.6	2	5	315	0.00	30.109 
19:35	37.3	37.3	37.3	65	26.6	1	3	315	0.00	30.109 
19:40	37.2	37.2	37.2	65	26.5	1	3	292	0.00	30.109 
19:45	37.0	37.0	37.0	65	26.3	1	3	292	0.00	30.116 
19:50	37.0	37.0	37.0	65	26.3	2	6	292	0.00	30.116 
19:55	37.0	37.0	37.0	65	26.3	2	4	292	0.00	30.116 
20:00	37.0	37.0	37.0	65	26.3	1	3	292	0.00	30.121 
20:05	37.0	37.0	37.0	65	26.3	2	6	292	0.00	30.121 
20:10	37.0	37.0	37.0	64	26.0	2	5	248	0.00	30.121 
20:15	37.0	37.0	37.0	64	26.0	1	4	315	0.00	30.126 
20:20	37.0	37.0	37.0	64	26.0	1	5	338	0.00	30.126 
20:25	37.0	37.0	37.0	64	26.0	1	4	270	0.00	30.126 
20:30	36.9	36.9	36.9	64	25.9	1	4	338	0.00	30.136 
20:35	37.0	37.0	37.0	64	26.0	2	6	292	0.00	30.136 
20:40	36.9	36.9	36.9	64	25.9	0	4	315	0.00	30.136 
20:45	36.8	36.8	36.8	64	25.8	1	5	292	0.00	30.138 
20:50	36.6	36.6	36.6	64	25.6	1	3	248	0.00	30.138 
20:55	36.6	36.6	36.6	64	25.6	1	3	292	0.00	30.138 
21:00	36.5	36.5	36.5	64	25.5	1	4	315	0.00	30.140 
21:05	36.5	36.5	36.5	64	25.5	1	4	315	0.00	30.140 
21:10	36.5	36.5	36.5	64	25.5	1	4	292	0.00	30.140 
21:15	36.2	36.2	36.2	64	25.2	1	3	292	0.00	30.144 
21:20	36.0	36.0	36.0	65	25.4	1	3	292	0.00	30.144 
21:25	36.0	36.0	36.0	65	25.4	1	3	292	0.00	30.144 
21:30	35.9	35.9	35.9	65	25.3	1	4	292	0.00	30.144 
21:35	35.9	35.9	35.9	65	25.3	0	2	292	0.00	30.144 
21:40	35.8	35.8	35.8	65	25.2	1	3	292	0.00	30.144 
21:45	35.8	35.8	35.8	65	25.2	0	1	292	0.00	30.154 
21:50	35.8	35.8	35.8	66	25.6	0	2	292	0.00	30.154 
21:55	35.8	35.8	35.8	66	25.6	0	2	292	0.00	30.154 
22:00	35.8	35.8	35.8	66	25.6	0	1	292	0.00	30.157 
22:05	35.8	35.8	35.8	66	25.6	0	1	292	0.00	30.157 
22:10	35.6	35.6	35.6	66	25.4	0	3	292	0.00	30.157 
22:15	35.6	35.6	35.6	67	25.7	0	1	292	0.00	30.155 
22:20	35.6	35.6	35.6	67	25.7	0	1	292	0.00	30.155 
22:25	35.6	35.6	35.6	67	25.7	0	1	292	0.00	30.155 
22:30	35.6	35.6	35.6	67	25.7	0	2	292	0.00	30.162 
22:35	35.5	35.5	35.5	68	26.0	0	2	292	0.00	30.162 
22:40	35.5	35.5	35.5	68	26.0	0	2	292	0.00	30.162 
22:45	35.5	35.5	35.5	68	26.0	0	1	292	0.00	30.167 
22:50	35.5	35.5	35.5	68	26.0	0	1	292	0.00	30.167 
22:55	35.5	35.5	35.5	68	26.0	0	2	292	0.00	30.167 
23:00	35.6	35.6	35.6	69	26.4	0	1	292	0.00	30.161 
23:05	35.6	35.6	35.6	69	26.4	0	1	292	0.00	30.161 
23:10	35.6	35.6	35.6	69	26.4	0	1	292	0.00	30.161 
23:15	35.6	35.6	35.6	69	26.4	0	1	292	0.00	30.167 
23:20	35.6	35.6	35.6	69	26.4	0	1	292	0.00	30.167 
23:25	35.6	35.6	35.6	69	26.4	0	2	292	0.00	30.167 
23:30	35.8	35.8	35.8	69	26.6	0	3	292	0.00	30.173 
23:35	35.8	35.8	35.8	69	26.6	0	2	292	0.00	30.173 
23:40	35.8	35.8	35.8	69	26.6	0	2	292	0.00	30.173 
23:45	35.8	35.8	35.8	69	26.6	0	0	---	0.00	30.183 
23:50	35.9	35.9	35.9	69	26.7	0	3	292	0.00	30.183 
23:55	35.9	35.9	35.9	69	26.7	0	2	292	0.00	30.183 

CoCoRaHS
IN-AL-39
A2 Web Hosting
Creative Commons License
GoDaddy
search engine by freefind advanced

loaded 2018-11-17 15:08:57 • last modified 2010-11-18 10:43:29
Privacy PolicyDisclaimer
• wx.awcolley.com is powered by PmWiki v.2002016 •
• all content (unless otherwise noted) © 2018 A W Colley